Time;durP1;ratioP1;P1;durP2;ratioP2;P2;SDS_P1;SDS_P2;PMS_P1;PMS_P2;Temp;Humidity;BMP_temperature;BMP_pressure;BME280_temperature;BME280_humidity;BME280_pressure;Samples;Min_cycle;Max_cycle;Signal;HPM_P1;HPM_P2
2022/08/09 00:00:57;;;;;;;8.00;5.67;;;18.30;99.90;;;;;;5111190;28;20475;-74
2022/08/09 00:03:22;;;;;;;7.87;5.43;;;18.30;99.90;;;;;;5111176;28;20063;-73
2022/08/09 00:05:48;;;;;;;6.73;4.90;;;18.30;99.90;;;;;;5111161;28;20035;-74
2022/08/09 00:08:13;;;;;;;6.63;4.90;;;18.30;99.90;;;;;;5111070;28;20106;-74
2022/08/09 00:10:40;;;;;;;7.20;5.30;;;18.30;99.90;;;;;;5109747;28;20292;-73
2022/08/09 00:13:07;;;;;;;7.45;5.35;;;18.20;99.90;;;;;;5111108;28;20059;-71
2022/08/09 00:15:33;;;;;;;8.25;4.75;;;18.20;99.90;;;;;;5111170;28;20062;-73
2022/08/09 00:17:58;;;;;;;7.43;5.13;;;18.30;99.90;;;;;;5110794;28;20487;-72
2022/08/09 00:20:24;;;;;;;6.63;4.93;;;18.30;99.90;;;;;;5109682;28;20077;-72
2022/08/09 00:22:49;;;;;;;6.67;4.70;;;18.30;99.90;;;;;;5110706;28;20114;-71
2022/08/09 00:25:16;;;;;;;7.23;5.30;;;18.30;99.90;;;;;;5110870;28;20455;-72
2022/08/09 00:27:41;;;;;;;7.82;5.30;;;18.30;99.90;;;;;;5111300;28;20133;-73
2022/08/09 00:30:08;;;;;;;6.30;4.67;;;18.30;99.90;;;;;;5109623;28;20023;-73
2022/08/09 00:32:33;;;;;;;5.75;3.97;;;18.30;99.90;;;;;;5109512;28;20505;-72
2022/08/09 00:34:59;;;;;;;5.70;4.20;;;18.30;99.90;;;;;;5111161;28;20027;-72
2022/08/09 00:37:25;;;;;;;6.97;4.90;;;18.30;99.90;;;;;;5111461;28;20055;-74
2022/08/09 00:39:51;;;;;;;8.27;5.55;;;18.30;99.90;;;;;;5110880;28;20382;-72
2022/08/09 00:42:17;;;;;;;6.80;4.70;;;18.30;99.90;;;;;;5111093;28;20040;-73
2022/08/09 00:44:43;;;;;;;8.57;4.87;;;18.30;99.90;;;;;;5109331;28;20031;-73
2022/08/09 00:47:08;;;;;;;8.03;5.23;;;18.30;99.90;;;;;;5110851;28;20459;-73
2022/08/09 00:49:35;;;;;;;6.80;5.00;;;18.30;99.90;;;;;;5109161;28;20024;-74
2022/08/09 00:52:01;;;;;;;7.05;5.30;;;18.30;99.90;;;;;;5109026;28;20491;-71
2022/08/09 00:54:26;;;;;;;6.57;4.72;;;18.30;99.90;;;;;;5110446;28;20443;-75
2022/08/09 00:56:52;;;;;;;6.77;4.50;;;18.20;99.90;;;;;;5110555;28;20124;-73
2022/08/09 00:59:18;;;;;;;6.93;4.67;;;18.20;99.90;;;;;;5110407;28;20085;-73
2022/08/09 01:01:45;;;;;;;7.43;5.50;;;18.20;99.90;;;;;;5110615;28;20115;-73
2022/08/09 01:04:23;;;;;;;6.78;4.60;;;18.20;99.90;;;;;;5110181;28;20020;-74
2022/08/09 01:07:07;;;;;;;7.15;5.05;;;18.20;99.90;;;;;;5110425;28;20035;-73
2022/08/09 01:09:38;;;;;;;6.22;4.60;;;17.80;99.90;;;;;;5113752;28;20116;-72
2022/08/09 01:12:28;;;;;;;6.65;4.82;;;18.10;99.90;;;;;;5113269;28;20034;-73
2022/08/09 01:15:04;;;;;;;6.57;4.95;;;18.20;99.90;;;;;;5113499;28;20047;-72
2022/08/09 01:17:34;;;;;;;6.70;4.65;;;18.20;99.90;;;;;;5114878;28;20065;-73
2022/08/09 01:20:07;;;;;;;6.10;4.13;;;18.20;99.90;;;;;;5115112;28;20421;-73
2022/08/09 01:22:46;;;;;;;5.95;4.20;;;18.20;99.90;;;;;;5113020;28;20035;-73
2022/08/09 01:25:25;;;;;;;5.53;3.92;;;18.20;99.90;;;;;;5112926;28;20039;-73
2022/08/09 01:27:53;;;;;;;6.10;4.15;;;18.20;99.90;;;;;;5114892;28;20050;-73
2022/08/09 01:30:21;;;;;;;6.30;4.40;;;18.20;99.90;;;;;;5114398;28;20032;-72
2022/08/09 01:32:50;;;;;;;6.07;4.30;;;18.20;99.90;;;;;;5114354;28;20110;-73
2022/08/09 01:35:23;;;;;;;7.32;4.03;;;18.20;99.90;;;;;;5114024;28;20030;-72
2022/08/09 01:37:52;;;;;;;5.85;4.03;;;18.20;99.90;;;;;;5114363;28;20028;-73
2022/08/09 01:40:20;;;;;;;5.68;4.28;;;18.10;99.90;;;;;;5114298;28;20348;-73
2022/08/09 01:42:48;;;;;;;5.70;3.97;;;18.10;99.90;;;;;;5113818;28;20055;-73
2022/08/09 01:45:15;;;;;;;6.22;4.50;;;18.10;99.90;;;;;;5113941;28;20032;-73
2022/08/09 01:47:43;;;;;;;6.30;4.10;;;18.10;99.90;;;;;;5112549;28;20024;-73
2022/08/09 01:50:10;;;;;;;4.60;3.38;;;18.00;99.90;;;;;;5112596;28;20058;-73
2022/08/09 01:52:37;;;;;;;5.55;4.25;;;18.00;99.90;;;;;;5114051;28;20110;-72
2022/08/09 01:55:05;;;;;;;5.65;3.95;;;18.00;99.90;;;;;;5113698;28;20039;-73
2022/08/09 01:57:39;;;;;;;4.55;3.35;;;18.00;99.90;;;;;;5114079;28;20043;-73
2022/08/09 02:00:07;;;;;;;6.18;3.60;;;18.00;99.90;;;;;;5112315;28;20059;-73
2022/08/09 02:02:37;;;;;;;5.75;3.38;;;18.00;99.90;;;;;;5112300;28;20039;-73
2022/08/09 02:05:06;;;;;;;5.13;3.60;;;18.00;99.90;;;;;;5113526;28;20432;-73
2022/08/09 02:07:35;;;;;;;5.68;4.18;;;17.90;99.90;;;;;;5113855;28;20036;-73
2022/08/09 02:10:09;;;;;;;6.45;4.05;;;17.90;99.90;;;;;;5112086;28;20020;-72
2022/08/09 02:12:37;;;;;;;5.32;3.53;;;17.90;99.90;;;;;;5113754;28;20031;-74
2022/08/09 02:15:06;;;;;;;5.55;3.95;;;18.00;99.90;;;;;;5113401;27;20100;-73
2022/08/09 02:17:32;;;;;;;5.78;3.58;;;17.80;99.90;;;;;;5113633;28;20036;-73
2022/08/09 02:19:58;;;;;;;;;;;17.80;99.90;;;;;;5113051;28;20297;-73
2022/08/09 02:22:41;;;;;;;5.47;3.53;;;17.80;99.90;;;;;;5113476;28;19947;-73
2022/08/09 02:25:16;;;;;;;7.18;3.28;;;17.80;99.90;;;;;;5113233;28;20132;-73
2022/08/09 02:27:52;;;;;;;4.93;3.58;;;17.70;99.90;;;;;;5111910;28;20524;-74
2022/08/09 02:30:18;;;;;;;5.35;3.38;;;17.70;99.90;;;;;;5112994;28;20019;-73
2022/08/09 02:32:45;;;;;;;4.83;3.20;;;17.70;99.90;;;;;;5111501;28;20051;-73
2022/08/09 02:35:18;;;;;;;5.05;3.40;;;17.60;99.90;;;;;;5112982;28;20034;-73
2022/08/09 02:37:48;;;;;;;6.28;4.25;;;17.70;99.90;;;;;;5113472;28;20120;-73
2022/08/09 02:40:17;;;;;;;4.43;3.05;;;17.70;99.90;;;;;;5112972;27;20190;-72
2022/08/09 02:42:46;;;;;;;5.90;3.17;;;17.70;99.90;;;;;;5113294;28;20396;-72
2022/08/09 02:45:29;;;;;;;5.25;3.55;;;17.80;99.90;;;;;;5113060;28;20023;-74
2022/08/09 02:48:03;;;;;;;6.22;3.70;;;17.80;99.90;;;;;;5111672;28;20024;-73
2022/08/09 02:50:35;;;;;;;5.18;3.28;;;17.70;99.90;;;;;;5111535;28;20026;-73
2022/08/09 02:53:08;;;;;;;4.57;3.15;;;17.70;99.90;;;;;;5113127;28;20024;-73
2022/08/09 02:55:35;;;;;;;5.18;3.28;;;17.80;99.90;;;;;;5112611;28;20130;-73
2022/08/09 02:58:01;;;;;;;6.18;3.88;;;17.70;99.90;;;;;;5113146;28;20032;-73
2022/08/09 03:00:28;;;;;;;5.75;3.55;;;17.70;99.90;;;;;;5112659;28;20459;-73
2022/08/09 03:02:56;;;;;;;5.47;3.03;;;17.70;99.90;;;;;;5110981;28;20040;-72
2022/08/09 03:05:22;;;;;;;6.00;3.40;;;17.80;99.90;;;;;;5112314;28;20471;-73
2022/08/09 03:07:50;;;;;;;5.40;3.50;;;17.70;99.90;;;;;;5112825;28;20027;-73
2022/08/09 03:10:16;;;;;;;5.07;3.22;;;17.70;99.90;;;;;;5112235;28;20252;-73
2022/08/09 03:12:43;;;;;;;6.63;3.30;;;17.70;99.90;;;;;;5111061;28;20027;-74
2022/08/09 03:15:11;;;;;;;6.15;3.60;;;17.70;99.90;;;;;;5110784;28;20118;-71
2022/08/09 03:17:37;;;;;;;4.35;3.28;;;17.70;99.90;;;;;;5112500;28;20041;-72
2022/08/09 03:20:06;;;;;;;4.70;3.47;;;17.70;99.90;;;;;;5110782;28;20066;-72
2022/08/09 03:22:36;;;;;;;4.90;3.25;;;17.70;99.90;;;;;;5110649;28;20039;-72
2022/08/09 03:25:02;;;;;;;5.03;3.60;;;17.60;99.90;;;;;;5110529;28;20147;-72
2022/08/09 03:27:29;;;;;;;5.97;4.10;;;17.70;99.90;;;;;;5112382;28;20048;-72
2022/08/09 03:29:56;;;;;;;6.38;4.13;;;17.70;99.90;;;;;;5110492;28;20034;-72
2022/08/09 03:32:22;;;;;;;5.32;3.67;;;17.70;99.90;;;;;;5111037;28;20039;-73
2022/08/09 03:34:48;;;;;;;5.03;3.22;;;17.70;99.90;;;;;;5111870;28;20467;-72
2022/08/09 03:37:14;;;;;;;4.37;3.00;;;17.70;99.90;;;;;;5112147;28;20046;-71
2022/08/09 03:39:39;;;;;;;4.53;3.20;;;17.70;99.90;;;;;;5112106;28;20036;-72
2022/08/09 03:42:05;;;;;;;4.83;3.40;;;17.70;99.90;;;;;;5111949;28;20031;-71
2022/08/09 03:44:31;;;;;;;5.37;3.23;;;17.70;99.90;;;;;;5111608;28;20099;-72
2022/08/09 03:46:56;;;;;;;4.70;3.00;;;17.70;99.90;;;;;;5110312;28;20038;-72
2022/08/09 03:49:24;;;;;;;4.50;2.77;;;17.80;99.90;;;;;;5111420;28;20046;-72
2022/08/09 03:51:55;;;;;;;5.35;2.80;;;17.80;99.90;;;;;;5110139;28;20324;-73
2022/08/09 03:54:25;;;;;;;4.40;3.30;;;17.80;99.90;;;;;;5111299;28;20035;-73
2022/08/09 03:56:52;;;;;;;4.47;2.97;;;17.80;99.90;;;;;;5111368;28;20070;-73
2022/08/09 03:59:17;;;;;;;5.35;3.08;;;17.90;99.90;;;;;;5111350;28;20035;-72
2022/08/09 04:01:44;;;;;;;5.30;3.10;;;17.90;99.90;;;;;;5109830;28;20539;-73
2022/08/09 04:04:11;;;;;;;;;;;17.90;99.90;;;;;;5109972;28;20027;-72
2022/08/09 04:06:37;;;;;;;4.82;2.95;;;17.90;99.90;;;;;;5109958;28;19947;-72
2022/08/09 04:09:05;;;;;;;5.18;2.70;;;17.90;99.90;;;;;;5111099;28;20015;-73
2022/08/09 04:11:50;;;;;;;3.70;2.65;;;17.90;99.90;;;;;;5111181;28;20035;-72
2022/08/09 04:14:21;;;;;;;4.32;3.05;;;18.00;99.90;;;;;;5109639;28;20027;-72
2022/08/09 04:16:46;;;;;;;4.30;2.80;;;17.90;99.90;;;;;;5111269;28;20035;-72
2022/08/09 04:19:14;;;;;;;4.03;2.50;;;17.90;99.90;;;;;;5111104;28;20038;-73
2022/08/09 04:21:40;;;;;;;5.53;2.67;;;17.90;99.90;;;;;;5109608;28;20024;-72
2022/08/09 04:24:06;;;;;;;4.40;2.60;;;17.90;99.90;;;;;;5109481;28;20035;-72
2022/08/09 04:26:32;;;;;;;4.35;2.80;;;17.90;99.90;;;;;;5109722;28;20028;-72
2022/08/09 04:28:58;;;;;;;5.70;3.30;;;17.80;99.90;;;;;;5110885;28;20038;-72
2022/08/09 04:31:23;;;;;;;3.93;2.60;;;17.90;99.90;;;;;;5109385;28;20036;-72
2022/08/09 04:33:49;;;;;;;3.73;2.43;;;18.00;99.90;;;;;;5109521;28;20024;-72
2022/08/09 04:36:16;;;;;;;5.17;2.87;;;18.10;99.90;;;;;;5109292;28;20035;-73
2022/08/09 04:38:41;;;;;;;4.75;2.63;;;18.10;99.90;;;;;;5109269;28;20053;-72
2022/08/09 04:41:07;;;;;;;4.67;2.80;;;18.10;99.90;;;;;;5110567;28;20036;-72
2022/08/09 04:43:33;;;;;;;3.47;2.33;;;18.20;99.90;;;;;;5110512;28;20019;-71
2022/08/09 04:45:59;;;;;;;3.87;2.47;;;18.20;99.90;;;;;;5110379;28;20475;-72
2022/08/09 04:48:25;;;;;;;4.40;2.83;;;18.30;99.90;;;;;;5110500;28;20085;-73
2022/08/09 04:50:51;;;;;;;4.73;3.00;;;18.20;99.90;;;;;;5110508;28;20020;-73
2022/08/09 04:53:17;;;;;;;4.57;3.00;;;18.10;99.90;;;;;;5110570;28;20016;-73
2022/08/09 04:55:43;;;;;;;4.90;2.80;;;18.30;99.90;;;;;;5110427;28;20077;-73
2022/08/09 04:58:09;;;;;;;3.85;2.40;;;18.30;99.90;;;;;;5110588;28;20031;-74
2022/08/09 05:00:34;;;;;;;4.13;2.70;;;18.50;99.90;;;;;;5110585;28;20047;-74
2022/08/09 05:03:04;;;;;;;4.07;2.57;;;18.40;99.90;;;;;;5109415;28;20074;-72
2022/08/09 05:05:30;;;;;;;4.53;2.42;;;18.60;99.90;;;;;;5109276;28;20092;-72
2022/08/09 05:07:56;;;;;;;3.80;2.28;;;18.80;99.90;;;;;;5111045;28;20023;-73
2022/08/09 05:10:22;;;;;;;3.27;2.00;;;18.70;99.90;;;;;;5110818;28;20028;-72
2022/08/09 05:12:47;;;;;;;3.93;2.40;;;18.80;99.90;;;;;;5110548;28;20024;-74
2022/08/09 05:15:13;;;;;;;3.13;2.30;;;18.80;99.90;;;;;;5109060;28;20031;-72
2022/08/09 05:17:39;;;;;;;4.43;2.20;;;18.80;99.90;;;;;;5110714;28;20066;-73
2022/08/09 05:20:05;;;;;;;4.43;2.20;;;18.90;99.90;;;;;;5110328;28;20031;-72
2022/08/09 05:22:31;;;;;;;3.13;2.28;;;18.90;99.90;;;;;;5110569;28;20383;-72
2022/08/09 05:24:57;;;;;;;5.73;2.40;;;19.00;99.90;;;;;;5110207;28;20039;-73
2022/08/09 05:27:22;;;;;;;3.97;2.70;;;19.00;99.90;;;;;;5110935;28;20024;-72
2022/08/09 05:29:48;;;;;;;5.43;2.50;;;19.10;99.90;;;;;;5108979;28;20028;-74
2022/08/09 05:32:13;;;;;;;3.67;2.20;;;19.10;99.90;;;;;;5110527;28;20372;-73
2022/08/09 05:34:39;;;;;;;3.60;2.50;;;19.10;99.90;;;;;;5110167;28;20031;-73
2022/08/09 05:37:06;;;;;;;4.10;2.17;;;19.10;99.90;;;;;;5110349;28;20382;-72
2022/08/09 05:39:32;;;;;;;4.53;2.65;;;19.10;99.90;;;;;;5109062;28;20076;-72
2022/08/09 05:41:58;;;;;;;;;;;19.20;99.90;;;;;;5109048;28;20036;-73
2022/08/09 05:44:26;;;;;;;3.58;1.90;;;19.10;99.90;;;;;;5110055;28;19912;-72
2022/08/09 05:46:52;;;;;;;14.30;9.68;;;19.20;99.90;;;;;;5110373;28;20093;-72
2022/08/09 05:49:18;;;;;;;2.90;2.10;;;19.30;99.90;;;;;;5108676;28;20035;-72
2022/08/09 05:51:43;;;;;;;3.10;2.10;;;19.30;99.90;;;;;;5110219;28;20348;-72
2022/08/09 05:54:09;;;;;;;2.37;1.70;;;19.40;99.90;;;;;;5110750;28;20107;-75
2022/08/09 05:56:34;;;;;;;2.83;1.67;;;19.50;99.90;;;;;;5112161;28;20055;-73
2022/08/09 05:59:00;;;;;;;3.17;1.93;;;19.60;99.90;;;;;;5112084;28;20060;-74
2022/08/09 06:01:27;;;;;;;3.67;1.80;;;19.60;99.90;;;;;;5113696;28;20044;-74
2022/08/09 06:03:53;;;;;;;;;;;19.60;99.90;;;;;;5112467;28;20479;-74
2022/08/09 06:06:19;;;;;;;4.28;2.40;;;19.60;99.90;;;;;;5113607;28;19912;-72
2022/08/09 06:08:45;;;;;;;2.33;1.80;;;19.70;99.90;;;;;;5113894;28;20032;-73
2022/08/09 06:11:11;;;;;;;2.47;1.80;;;19.70;99.90;;;;;;5111972;28;20101;-73
2022/08/09 06:13:37;;;;;;;3.22;1.90;;;19.80;99.90;;;;;;5113549;28;20027;-73
2022/08/09 06:16:03;;;;;;;3.90;1.98;;;19.90;99.90;;;;;;5113221;28;20031;-73
2022/08/09 06:18:29;;;;;;;3.72;1.90;;;20.10;99.90;;;;;;5111738;28;20118;-74
2022/08/09 06:20:55;;;;;;;3.13;2.17;;;20.20;99.90;;;;;;5113081;28;20173;-73
2022/08/09 06:23:22;;;;;;;2.47;1.70;;;20.40;99.90;;;;;;5113172;28;20102;-73
2022/08/09 06:25:48;;;;;;;8.00;1.88;;;20.50;99.90;;;;;;5112962;27;20032;-73
2022/08/09 06:28:14;;;;;;;4.80;1.92;;;20.60;99.90;;;;;;5112853;28;20489;-73
2022/08/09 06:30:41;;;;;;;3.53;2.10;;;20.70;99.90;;;;;;5112728;28;20107;-73
2022/08/09 06:33:07;;;;;;;;;;;20.70;99.90;;;;;;5113236;28;20378;-72
2022/08/09 06:35:32;;;;;;;3.08;1.98;;;20.80;99.90;;;;;;5112976;28;19912;-72
2022/08/09 06:37:58;;;;;;;2.47;1.50;;;20.90;99.90;;;;;;5113231;28;20028;-72
2022/08/09 06:40:23;;;;;;;2.90;1.83;;;21.00;99.90;;;;;;5111587;28;20020;-73
2022/08/09 06:42:49;;;;;;;2.53;1.77;;;21.10;99.90;;;;;;5113156;28;20053;-74
2022/08/09 06:45:15;;;;;;;3.00;1.77;;;21.00;99.90;;;;;;5112931;28;20034;-73
2022/08/09 06:47:40;;;;;;;2.63;1.63;;;21.00;99.90;;;;;;5113021;28;20036;-73
2022/08/09 06:50:07;;;;;;;2.80;1.90;;;21.00;99.90;;;;;;5112769;28;20053;-73
2022/08/09 06:52:33;;;;;;;4.47;1.80;;;21.00;99.90;;;;;;5112693;28;20069;-74
2022/08/09 06:54:58;;;;;;;3.90;1.80;;;20.90;99.90;;;;;;5112352;28;20071;-73
2022/08/09 06:57:26;;;;;;;2.92;1.70;;;20.90;99.90;;;;;;5113007;27;20047;-73
2022/08/09 06:59:52;;;;;;;2.25;1.50;;;20.90;99.90;;;;;;5111206;28;20548;-73
2022/08/09 07:02:18;;;;;;;3.90;1.52;;;20.90;99.90;;;;;;5112792;28;20032;-73
2022/08/09 07:04:44;;;;;;;3.80;1.75;;;20.80;99.90;;;;;;5112333;28;20028;-73
2022/08/09 07:07:10;;;;;;;3.57;2.07;;;20.90;99.90;;;;;;5112506;28;20035;-73
2022/08/09 07:09:35;;;;;;;4.77;2.60;;;21.00;99.90;;;;;;5111190;28;20599;-74
2022/08/09 07:12:01;;;;;;;4.13;1.87;;;21.00;99.90;;;;;;5110637;28;20525;-72
2022/08/09 07:14:27;;;;;;;3.97;1.77;;;21.00;99.90;;;;;;5111491;28;20036;-67
2022/08/09 07:16:53;;;;;;;3.17;1.70;;;21.00;99.90;;;;;;5107143;28;20069;-72
2022/08/09 07:19:18;;;;;;;5.07;1.58;;;21.10;99.90;;;;;;5104476;28;20059;-74
2022/08/09 07:21:44;;;;;;;2.05;1.45;;;21.10;99.90;;;;;;5104474;28;20031;-72
2022/08/09 07:24:10;;;;;;;2.25;1.42;;;21.20;99.90;;;;;;5111979;28;20416;-74
2022/08/09 07:26:36;;;;;;;2.57;1.63;;;21.30;99.90;;;;;;5101339;28;20073;-71
2022/08/09 07:29:04;;;;;;;4.37;1.93;;;21.20;99.90;;;;;;5091974;28;20073;-75
2022/08/09 07:31:29;;;;;;;3.47;1.80;;;21.30;99.90;;;;;;5092227;28;20031;-74
2022/08/09 07:33:55;;;;;;;2.23;1.63;;;21.30;99.90;;;;;;5097315;28;20395;-74
2022/08/09 07:36:21;;;;;;;2.03;1.50;;;21.30;99.90;;;;;;5110244;28;20070;-75
2022/08/09 07:38:46;;;;;;;4.23;1.77;;;21.40;99.90;;;;;;5111583;28;20019;-73
2022/08/09 07:41:12;;;;;;;4.50;2.00;;;21.40;99.90;;;;;;5111217;28;20129;-69
2022/08/09 07:43:38;;;;;;;2.20;1.70;;;21.40;99.90;;;;;;5111343;28;20168;-70
2022/08/09 07:46:04;;;;;;;4.63;1.83;;;21.50;99.90;;;;;;5111250;28;20039;-72
2022/08/09 07:48:29;;;;;;;2.50;1.80;;;21.60;99.90;;;;;;5111686;28;20052;-75
2022/08/09 07:50:56;;;;;;;2.50;1.50;;;21.60;99.90;;;;;;5104633;28;20020;-71
2022/08/09 07:53:22;;;;;;;2.15;1.40;;;21.60;99.90;;;;;;5110234;28;20070;-71
2022/08/09 07:55:48;;;;;;;2.53;1.50;;;21.60;99.90;;;;;;5109600;28;20124;-69
2022/08/09 07:58:13;;;;;;;3.90;1.50;;;21.60;99.90;;;;;;5109901;28;20031;-71
2022/08/09 08:00:39;;;;;;;2.60;1.77;;;21.70;99.90;;;;;;5108918;28;20483;-73
2022/08/09 08:03:04;;;;;;;2.20;1.57;;;21.80;99.90;;;;;;5110600;28;20031;-72
2022/08/09 08:05:30;;;;;;;3.17;2.07;;;21.80;99.90;;;;;;5110968;28;20024;-68
2022/08/09 08:07:56;;;;;;;1.83;1.27;;;21.80;99.90;;;;;;5109870;28;20028;-73
2022/08/09 08:10:22;;;;;;;3.80;1.30;;;21.80;99.90;;;;;;5111380;28;20069;-70
2022/08/09 08:12:47;;;;;;;2.00;1.40;;;21.90;99.90;;;;;;5111589;28;20366;-65
2022/08/09 08:15:19;;;;;;;1.30;1.10;;;21.90;99.90;;;;;;5111264;28;20115;-72
2022/08/09 08:17:46;;;;;;;2.40;1.20;;;21.90;99.90;;;;;;5099129;27;20036;-66
2022/08/09 08:20:12;;;;;;;2.60;1.33;;;22.00;99.90;;;;;;5090722;28;20026;-68
2022/08/09 08:22:38;;;;;;;1.92;1.35;;;22.10;99.90;;;;;;5091108;28;20027;-64
2022/08/09 08:25:04;;;;;;;4.30;1.67;;;22.20;99.90;;;;;;5096190;28;20639;-65
2022/08/09 08:27:30;;;;;;;4.18;1.30;;;22.20;99.90;;;;;;5111348;28;20528;-73
2022/08/09 08:29:56;;;;;;;1.20;1.10;;;22.30;99.90;;;;;;5111343;28;20031;-73
2022/08/09 08:32:21;;;;;;;1.70;1.40;;;22.30;99.90;;;;;;5111309;28;20032;-77
2022/08/09 08:34:47;;;;;;;2.57;1.40;;;22.20;99.90;;;;;;5111386;28;20470;-74
2022/08/09 08:37:13;;;;;;;2.33;1.60;;;22.20;99.90;;;;;;5111213;28;20035;-74
2022/08/09 08:39:38;;;;;;;2.43;1.73;;;22.20;99.90;;;;;;5110854;28;20256;-73
2022/08/09 08:42:05;;;;;;;3.40;1.50;;;22.20;99.90;;;;;;5110895;28;20072;-73
2022/08/09 08:44:35;;;;;;;3.50;1.55;;;22.20;99.90;;;;;;5110287;28;20084;-69
2022/08/09 08:47:01;;;;;;;1.63;1.05;;;22.10;99.90;;;;;;5110226;28;20051;-69
2022/08/09 08:49:29;;;;;;;2.72;1.08;;;22.10;99.90;;;;;;5110643;28;20035;-70
2022/08/09 08:51:55;;;;;;;1.25;1.02;;;22.20;99.90;;;;;;5109836;28;20040;-70
2022/08/09 08:54:20;;;;;;;2.20;1.10;;;22.10;99.90;;;;;;5109875;28;20020;-70
2022/08/09 08:56:46;;;;;;;1.90;1.20;;;22.10;99.90;;;;;;5109997;28;20150;-70
2022/08/09 08:59:12;;;;;;;1.53;1.30;;;22.10;99.90;;;;;;5110120;28;20407;-70
2022/08/09 09:01:42;;;;;;;2.05;1.40;;;22.10;99.90;;;;;;5110525;28;20064;-69
2022/08/09 09:04:11;;;;;;;1.70;1.20;;;22.10;99.90;;;;;;5110434;28;20036;-70
2022/08/09 09:06:39;;;;;;;1.27;1.00;;;22.20;99.90;;;;;;5110156;28;20036;-70
2022/08/09 09:09:06;;;;;;;2.42;1.30;;;22.20;99.90;;;;;;5110514;28;20016;-70
2022/08/09 09:11:34;;;;;;;2.50;1.40;;;22.20;99.90;;;;;;5110720;28;20024;-70
2022/08/09 09:14:02;;;;;;;1.23;1.13;;;22.10;99.90;;;;;;5110721;28;20043;-70
2022/08/09 09:16:32;;;;;;;1.42;1.20;;;22.10;99.90;;;;;;5110582;28;20489;-69
2022/08/09 09:18:59;;;;;;;2.47;1.67;;;22.00;99.90;;;;;;5099543;28;20100;-70
2022/08/09 09:21:25;;;;;;;2.05;1.30;;;22.00;99.90;;;;;;5090057;28;20040;-71
2022/08/09 09:23:50;;;;;;;2.63;1.67;;;22.10;99.90;;;;;;5089775;28;20024;-71
2022/08/09 09:26:22;;;;;;;1.70;1.40;;;22.10;99.90;;;;;;5103759;28;20478;-71
2022/08/09 09:28:48;;;;;;;3.03;1.45;;;22.10;99.90;;;;;;5109074;28;20030;-70
2022/08/09 09:31:16;;;;;;;2.70;1.50;;;22.10;99.90;;;;;;5114051;28;20031;-69
2022/08/09 09:33:42;;;;;;;2.42;1.50;;;22.10;99.90;;;;;;5114028;28;20024;-70
2022/08/09 09:36:10;;;;;;;3.25;1.30;;;22.20;99.90;;;;;;5114077;28;20102;-70
2022/08/09 09:38:48;;;;;;;2.40;1.50;;;22.20;99.90;;;;;;5114224;28;20086;-70
2022/08/09 09:41:26;;;;;;;2.25;1.50;;;22.20;99.90;;;;;;5112419;28;20119;-70
2022/08/09 09:43:59;;;;;;;1.92;1.27;;;22.30;99.90;;;;;;5113831;28;20043;-71
2022/08/09 09:46:30;;;;;;;1.52;1.33;;;22.40;99.90;;;;;;5113867;28;20027;-72
2022/08/09 09:49:05;;;;;;;1.48;1.10;;;22.50;99.90;;;;;;5113773;28;20035;-69
2022/08/09 09:51:32;;;;;;;1.40;1.27;;;22.60;99.90;;;;;;5113866;28;20062;-70
2022/08/09 09:54:09;;;;;;;6.00;1.50;;;22.60;99.90;;;;;;5110957;28;20115;-70
2022/08/09 09:56:40;;;;;;;1.67;1.33;;;22.60;99.90;;;;;;5113859;27;20561;-71
2022/08/09 09:59:07;;;;;;;2.88;1.75;;;22.60;99.90;;;;;;5109202;27;20036;-72
2022/08/09 10:01:33;;;;;;;2.65;1.30;;;22.60;99.90;;;;;;5094927;28;20090;-71
2022/08/09 10:03:59;;;;;;;1.30;1.20;;;22.60;99.90;;;;;;5100027;27;20051;-69
2022/08/09 10:06:36;;;;;;;3.47;1.52;;;22.60;99.90;;;;;;5105407;27;20024;-74
2022/08/09 10:09:03;;;;;;;1.83;1.33;;;22.50;99.90;;;;;;5107860;27;20139;-70
2022/08/09 10:11:30;;;;;;;2.28;1.40;;;22.50;99.90;;;;;;5107317;27;20413;-70
2022/08/09 10:13:56;;;;;;;4.35;1.50;;;22.50;99.90;;;;;;5128007;27;20454;-73
2022/08/09 10:16:31;;;;;;;2.22;1.55;;;22.40;99.90;;;;;;5114670;28;20057;-71
2022/08/09 10:18:59;;;;;;;1.40;1.27;;;22.40;99.90;;;;;;5128980;27;20127;-71
2022/08/09 10:21:25;;;;;;;1.77;1.38;;;22.50;99.90;;;;;;5124615;27;20059;-71
2022/08/09 10:23:53;;;;;;;2.45;1.40;;;22.50;99.90;;;;;;5130796;27;20019;-71
2022/08/09 10:26:20;;;;;;;2.67;1.45;;;22.50;99.90;;;;;;5118407;27;20059;-71
2022/08/09 10:28:47;;;;;;;1.80;1.35;;;22.60;99.90;;;;;;5114395;28;20019;-70
2022/08/09 10:31:13;;;;;;;2.15;1.30;;;22.40;99.90;;;;;;5114363;27;20032;-71
2022/08/09 10:33:40;;;;;;;2.42;1.70;;;22.60;99.90;;;;;;5112907;27;20039;-69
2022/08/09 10:36:06;;;;;;;;;;;22.50;99.90;;;;;;5113007;27;20490;-71
2022/08/09 10:38:32;;;;;;;1.70;1.20;;;22.60;99.90;;;;;;5106078;27;19912;-69
2022/08/09 10:40:58;;;;;;;1.23;1.07;;;22.50;99.90;;;;;;5110809;27;20176;-70
2022/08/09 10:43:25;;;;;;;1.63;1.17;;;22.50;99.90;;;;;;5108685;28;20027;-70
2022/08/09 10:45:51;;;;;;;2.47;1.35;;;22.40;99.90;;;;;;5109442;27;20053;-70
2022/08/09 10:48:23;;;;;;;2.17;1.38;;;22.40;99.90;;;;;;5124821;27;20027;-69
2022/08/09 10:51:13;;;;;;;2.55;1.10;;;22.40;99.90;;;;;;5112090;27;20032;-70
2022/08/09 10:54:04;;;;;;;1.95;1.20;;;22.40;99.90;;;;;;5118916;27;20023;-70
2022/08/09 10:56:36;;;;;;;1.30;1.10;;;22.40;99.90;;;;;;5119978;27;20534;-69
2022/08/09 10:59:26;;;;;;;2.15;1.42;;;22.30;99.90;;;;;;5108441;27;20462;-71
2022/08/09 11:01:52;;;;;;;2.67;1.15;;;22.30;99.90;;;;;;5096663;28;20040;-69
2022/08/09 11:04:20;;;;;;;2.43;1.33;;;22.30;99.90;;;;;;5107991;28;20466;-70
2022/08/09 11:07:08;;;;;;;1.38;1.10;;;22.30;99.90;;;;;;5109696;28;20056;-69
2022/08/09 11:09:36;;;;;;;3.33;1.40;;;22.20;99.90;;;;;;5115436;27;20027;-71
2022/08/09 11:12:15;;;;;;;1.52;1.20;;;22.20;99.90;;;;;;5134491;27;20039;-69
2022/08/09 11:14:47;;;;;;;1.58;1.10;;;22.10;99.90;;;;;;5127783;27;20375;-69
2022/08/09 11:17:13;;;;;;;7.95;2.25;;;22.10;99.90;;;;;;5112822;27;20038;-69
2022/08/09 11:20:09;;;;;;;2.63;1.57;;;22.00;99.90;;;;;;5112319;28;20032;-69
2022/08/09 11:22:44;;;;;;;3.90;1.40;;;22.00;99.90;;;;;;5111472;28;20141;-69
2022/08/09 11:25:21;;;;;;;1.80;1.30;;;21.90;99.90;;;;;;5099502;28;20521;-70
2022/08/09 11:27:52;;;;;;;3.00;1.40;;;22.00;99.90;;;;;;5113549;28;20028;-69
2022/08/09 11:30:20;;;;;;;1.92;1.27;;;21.90;99.90;;;;;;5122456;27;20027;-69
2022/08/09 11:32:46;;;;;;;5.40;1.42;;;22.00;99.90;;;;;;5124623;27;20063;-73
2022/08/09 11:35:38;;;;;;;2.33;1.40;;;22.00;99.90;;;;;;5103130;28;20165;-75
2022/08/09 11:38:26;;;;;;;1.50;1.20;;;22.00;99.90;;;;;;5104017;27;20130;-75
2022/08/09 11:40:52;;;;;;;1.63;1.17;;;21.90;99.90;;;;;;5107049;28;20019;-76
2022/08/09 11:43:24;;;;;;;1.90;1.20;;;21.90;99.90;;;;;;5108555;28;20124;-75
2022/08/09 11:46:01;;;;;;;4.32;1.20;;;21.90;99.90;;;;;;5109288;27;20043;-76
2022/08/09 11:48:29;;;;;;;2.30;1.23;;;22.00;99.90;;;;;;5119129;27;20059;-75
2022/08/09 11:51:03;;;;;;;2.78;1.30;;;22.10;99.90;;;;;;5107959;27;20024;-75
2022/08/09 11:53:29;;;;;;;1.75;1.15;;;22.10;99.90;;;;;;5105809;27;20030;-74
2022/08/09 11:56:19;;;;;;;1.90;1.23;;;22.20;99.90;;;;;;5110026;27;20051;-71
2022/08/09 11:58:52;;;;;;;2.47;1.20;;;22.20;99.90;;;;;;5106979;28;20026;-75
2022/08/09 12:01:29;;;;;;;1.88;1.20;;;22.20;99.90;;;;;;5112908;28;20065;-75
2022/08/09 12:04:13;;;;;;;1.80;1.35;;;22.20;99.90;;;;;;5102747;28;20057;-75
2022/08/09 12:06:48;;;;;;;1.98;1.38;;;22.20;99.90;;;;;;5111427;28;20035;-75
2022/08/09 12:09:14;;;;;;;5.80;1.20;;;22.30;99.90;;;;;;5105707;28;20074;-75
2022/08/09 12:11:40;;;;;;;1.48;1.17;;;22.20;99.90;;;;;;5104171;28;20035;-75
2022/08/09 12:14:09;;;;;;;3.17;1.42;;;22.20;99.90;;;;;;5112456;28;20069;-72
2022/08/09 12:16:40;;;;;;;2.15;1.40;;;22.20;99.90;;;;;;5112279;28;20039;-73
2022/08/09 12:19:08;;;;;;;2.55;1.20;;;22.20;99.90;;;;;;5106894;28;20023;-74
2022/08/09 12:21:42;;;;;;;2.05;1.10;;;22.30;99.90;;;;;;5112748;28;20367;-74
2022/08/09 12:24:10;;;;;;;1.15;1.05;;;22.30;99.90;;;;;;5110618;27;20054;-74
2022/08/09 12:26:49;;;;;;;2.00;1.23;;;22.30;99.90;;;;;;5112714;28;20043;-72
2022/08/09 12:29:19;;;;;;;2.47;1.20;;;22.20;99.90;;;;;;5112595;27;20023;-77
2022/08/09 12:31:47;;;;;;;1.98;1.25;;;22.30;99.90;;;;;;5111304;28;20459;-69
2022/08/09 12:34:14;;;;;;;3.22;1.30;;;22.30;99.90;;;;;;5112016;28;20063;-76
2022/08/09 12:36:59;;;;;;;1.33;1.10;;;22.40;99.90;;;;;;5110715;28;20043;-75
2022/08/09 12:39:25;;;;;;;4.32;1.20;;;22.50;99.90;;;;;;5111800;27;20030;-75
2022/08/09 12:41:51;;;;;;;2.05;1.13;;;22.70;99.90;;;;;;5121680;27;20414;-74
2022/08/09 12:44:17;;;;;;;2.40;1.23;;;22.70;99.90;;;;;;5113870;28;20023;-72
2022/08/09 12:46:45;;;;;;;2.70;1.40;;;22.80;99.90;;;;;;5121292;27;20283;-75
2022/08/09 12:49:11;;;;;;;2.20;1.20;;;22.70;99.90;;;;;;5110331;28;20034;-76
2022/08/09 12:51:37;;;;;;;2.60;1.17;;;22.70;99.90;;;;;;5107460;28;20036;-75
2022/08/09 12:54:05;;;;;;;1.80;1.30;;;22.60;99.90;;;;;;5101918;28;20036;-75